sensor_id;sensor_type;location;lat;lon;timestamp;temperature;humidity
68109;SHT30;54893;49.864;19.084;2022-10-30T00:02:19;11.06;94.77
68109;SHT30;54893;49.864;19.084;2022-10-30T00:07:20;11.00;94.64
68109;SHT30;54893;49.864;19.084;2022-10-30T00:12:20;10.92;95.08
68109;SHT30;54893;49.864;19.084;2022-10-30T00:17:20;10.83;95.00
68109;SHT30;54893;49.864;19.084;2022-10-30T00:22:21;10.82;95.37
68109;SHT30;54893;49.864;19.084;2022-10-30T00:27:22;10.93;94.99
68109;SHT30;54893;49.864;19.084;2022-10-30T00:32:22;10.95;94.86
68109;SHT30;54893;49.864;19.084;2022-10-30T00:37:22;10.99;94.68
68109;SHT30;54893;49.864;19.084;2022-10-30T00:42:28;10.80;94.99
68109;SHT30;54893;49.864;19.084;2022-10-30T00:47:35;10.73;95.30
68109;SHT30;54893;49.864;19.084;2022-10-30T00:52:44;10.82;94.85
68109;SHT30;54893;49.864;19.084;2022-10-30T00:57:47;10.82;95.09
68109;SHT30;54893;49.864;19.084;2022-10-30T01:02:50;10.60;95.47
68109;SHT30;54893;49.864;19.084;2022-10-30T01:07:51;10.44;95.97
68109;SHT30;54893;49.864;19.084;2022-10-30T01:12:52;10.46;95.75
68109;SHT30;54893;49.864;19.084;2022-10-30T01:18:20;10.38;96.41
68109;SHT30;54893;49.864;19.084;2022-10-30T01:23:47;10.42;96.21
68109;SHT30;54893;49.864;19.084;2022-10-30T01:29:08;10.55;96.12
68109;SHT30;54893;49.864;19.084;2022-10-30T01:34:19;10.48;95.94
68109;SHT30;54893;49.864;19.084;2022-10-30T01:39:23;10.36;96.36
68109;SHT30;54893;49.864;19.084;2022-10-30T01:44:29;10.28;96.35
68109;SHT30;54893;49.864;19.084;2022-10-30T02:00:15;10.28;96.24
68109;SHT30;54893;49.864;19.084;2022-10-30T02:05:24;10.26;96.43
68109;SHT30;54893;49.864;19.084;2022-10-30T02:10:27;10.26;96.24
68109;SHT30;54893;49.864;19.084;2022-10-30T02:15:28;10.18;96.50
68109;SHT30;54893;49.864;19.084;2022-10-30T02:20:29;10.12;96.68
68109;SHT30;54893;49.864;19.084;2022-10-30T02:25:30;10.19;96.32
68109;SHT30;54893;49.864;19.084;2022-10-30T02:30:30;10.08;96.42
68109;SHT30;54893;49.864;19.084;2022-10-30T02:35:30;9.94;96.82
68109;SHT30;54893;49.864;19.084;2022-10-30T02:40:31;9.95;96.72
68109;SHT30;54893;49.864;19.084;2022-10-30T02:45:31;10.01;96.71
68109;SHT30;54893;49.864;19.084;2022-10-30T02:50:32;9.99;96.82
68109;SHT30;54893;49.864;19.084;2022-10-30T02:55:32;9.97;96.89
68109;SHT30;54893;49.864;19.084;2022-10-30T03:00:32;9.98;96.94
68109;SHT30;54893;49.864;19.084;2022-10-30T03:05:33;10.11;96.89
68109;SHT30;54893;49.864;19.084;2022-10-30T03:10:33;10.21;96.51
68109;SHT30;54893;49.864;19.084;2022-10-30T03:15:33;10.15;96.72
68109;SHT30;54893;49.864;19.084;2022-10-30T03:20:34;10.08;96.83
68109;SHT30;54893;49.864;19.084;2022-10-30T03:25:34;10.01;96.97
68109;SHT30;54893;49.864;19.084;2022-10-30T03:30:34;9.94;97.04
68109;SHT30;54893;49.864;19.084;2022-10-30T03:35:36;9.97;96.89
68109;SHT30;54893;49.864;19.084;2022-10-30T03:40:36;9.90;97.09
68109;SHT30;54893;49.864;19.084;2022-10-30T03:45:36;9.85;97.10
68109;SHT30;54893;49.864;19.084;2022-10-30T03:50:37;9.94;96.93
68109;SHT30;54893;49.864;19.084;2022-10-30T03:55:37;9.85;96.78
68109;SHT30;54893;49.864;19.084;2022-10-30T04:00:37;9.68;97.20
68109;SHT30;54893;49.864;19.084;2022-10-30T04:05:38;9.78;97.12
68109;SHT30;54893;49.864;19.084;2022-10-30T04:10:43;9.82;96.99
68109;SHT30;54893;49.864;19.084;2022-10-30T04:15:43;9.81;97.05
68109;SHT30;54893;49.864;19.084;2022-10-30T04:20:44;9.75;96.94
68109;SHT30;54893;49.864;19.084;2022-10-30T04:25:45;9.62;97.43
68109;SHT30;54893;49.864;19.084;2022-10-30T04:30:46;9.52;97.58
68109;SHT30;54893;49.864;19.084;2022-10-30T04:35:46;9.51;97.41
68109;SHT30;54893;49.864;19.084;2022-10-30T04:40:47;9.65;97.23
68109;SHT30;54893;49.864;19.084;2022-10-30T04:45:47;9.65;97.27
68109;SHT30;54893;49.864;19.084;2022-10-30T04:50:47;9.81;96.94
68109;SHT30;54893;49.864;19.084;2022-10-30T04:55:52;9.80;96.86
68109;SHT30;54893;49.864;19.084;2022-10-30T05:00:52;9.82;96.86
68109;SHT30;54893;49.864;19.084;2022-10-30T05:10:58;9.70;97.08
68109;SHT30;54893;49.864;19.084;2022-10-30T05:15:59;9.68;97.12
68109;SHT30;54893;49.864;19.084;2022-10-30T05:20:59;9.61;97.27
68109;SHT30;54893;49.864;19.084;2022-10-30T05:26:00;9.54;97.13
68109;SHT30;54893;49.864;19.084;2022-10-30T05:31:00;9.62;97.22
68109;SHT30;54893;49.864;19.084;2022-10-30T05:36:00;9.55;97.12
68109;SHT30;54893;49.864;19.084;2022-10-30T05:41:01;9.50;97.28
68109;SHT30;54893;49.864;19.084;2022-10-30T05:46:01;9.55;97.18
68109;SHT30;54893;49.864;19.084;2022-10-30T05:51:01;9.52;97.42
68109;SHT30;54893;49.864;19.084;2022-10-30T05:56:03;9.51;97.33
68109;SHT30;54893;49.864;19.084;2022-10-30T06:01:05;9.55;97.13
68109;SHT30;54893;49.864;19.084;2022-10-30T06:06:06;9.58;97.12
68109;SHT30;54893;49.864;19.084;2022-10-30T06:11:06;9.77;96.93
68109;SHT30;54893;49.864;19.084;2022-10-30T06:16:06;9.95;96.54
68109;SHT30;54893;49.864;19.084;2022-10-30T06:21:07;10.18;96.14
68109;SHT30;54893;49.864;19.084;2022-10-30T06:26:07;10.44;95.53
68109;SHT30;54893;49.864;19.084;2022-10-30T06:31:07;10.70;95.16
68109;SHT30;54893;49.864;19.084;2022-10-30T06:36:08;10.92;94.77
68109;SHT30;54893;49.864;19.084;2022-10-30T06:41:08;11.24;94.40
68109;SHT30;54893;49.864;19.084;2022-10-30T06:46:09;11.46;93.94
68109;SHT30;54893;49.864;19.084;2022-10-30T06:51:10;11.71;92.88
68109;SHT30;54893;49.864;19.084;2022-10-30T06:56:12;11.95;91.79
68109;SHT30;54893;49.864;19.084;2022-10-30T07:01:12;12.11;91.43
68109;SHT30;54893;49.864;19.084;2022-10-30T07:06:12;12.39;90.75
68109;SHT30;54893;49.864;19.084;2022-10-30T07:11:13;12.66;90.22
68109;SHT30;54893;49.864;19.084;2022-10-30T07:16:13;12.96;89.52
68109;SHT30;54893;49.864;19.084;2022-10-30T07:21:13;13.12;88.25
68109;SHT30;54893;49.864;19.084;2022-10-30T07:26:14;13.30;87.71
68109;SHT30;54893;49.864;19.084;2022-10-30T07:31:14;13.42;86.90
68109;SHT30;54893;49.864;19.084;2022-10-30T07:36:14;13.57;86.44
68109;SHT30;54893;49.864;19.084;2022-10-30T07:41:17;13.73;85.76
68109;SHT30;54893;49.864;19.084;2022-10-30T07:46:17;13.97;84.94
68109;SHT30;54893;49.864;19.084;2022-10-30T07:51:18;14.33;85.16
68109;SHT30;54893;49.864;19.084;2022-10-30T07:56:18;14.66;84.40
68109;SHT30;54893;49.864;19.084;2022-10-30T08:01:18;14.96;83.13
68109;SHT30;54893;49.864;19.084;2022-10-30T08:06:19;15.14;83.99
68109;SHT30;54893;49.864;19.084;2022-10-30T08:11:19;15.40;83.70
68109;SHT30;54893;49.864;19.084;2022-10-30T08:16:19;15.74;83.20
68109;SHT30;54893;49.864;19.084;2022-10-30T08:21:20;15.94;80.42
68109;SHT30;54893;49.864;19.084;2022-10-30T08:26:20;15.94;82.51
68109;SHT30;54893;49.864;19.084;2022-10-30T08:31:20;16.18;81.72
68109;SHT30;54893;49.864;19.084;2022-10-30T08:36:21;16.41;81.13
68109;SHT30;54893;49.864;19.084;2022-10-30T08:41:21;16.58;80.65
68109;SHT30;54893;49.864;19.084;2022-10-30T08:46:21;16.72;80.72
68109;SHT30;54893;49.864;19.084;2022-10-30T08:51:22;16.92;78.72
68109;SHT30;54893;49.864;19.084;2022-10-30T08:56:22;17.22;78.79
68109;SHT30;54893;49.864;19.084;2022-10-30T09:01:23;17.26;76.45
68109;SHT30;54893;49.864;19.084;2022-10-30T09:06:23;17.27;76.24
68109;SHT30;54893;49.864;19.084;2022-10-30T09:11:23;17.74;76.28
68109;SHT30;54893;49.864;19.084;2022-10-30T09:16:24;17.97;75.55
68109;SHT30;54893;49.864;19.084;2022-10-30T09:21:24;18.12;75.77
68109;SHT30;54893;49.864;19.084;2022-10-30T09:26:24;18.29;75.82
68109;SHT30;54893;49.864;19.084;2022-10-30T09:31:24;18.61;75.87
68109;SHT30;54893;49.864;19.084;2022-10-30T09:36:25;18.75;73.48
68109;SHT30;54893;49.864;19.084;2022-10-30T10:08:41;19.07;74.09
68109;SHT30;54893;49.864;19.084;2022-10-30T10:14:28;19.19;73.93
68109;SHT30;54893;49.864;19.084;2022-10-30T10:19:51;19.36;73.73
68109;SHT30;54893;49.864;19.084;2022-10-30T10:24:54;19.40;73.89
68109;SHT30;54893;49.864;19.084;2022-10-30T10:52:07;19.30;75.54
68109;SHT30;54893;49.864;19.084;2022-10-30T10:57:15;19.39;75.00
68109;SHT30;54893;49.864;19.084;2022-10-30T11:07:32;19.53;74.94
68109;SHT30;54893;49.864;19.084;2022-10-30T11:12:35;19.56;74.56
68109;SHT30;54893;49.864;19.084;2022-10-30T11:17:52;19.67;74.33
68109;SHT30;54893;49.864;19.084;2022-10-30T11:22:52;19.66;74.74
68109;SHT30;54893;49.864;19.084;2022-10-30T11:27:55;19.66;75.44
68109;SHT30;54893;49.864;19.084;2022-10-30T11:32:57;20.10;73.76
68109;SHT30;54893;49.864;19.084;2022-10-30T11:38:18;20.20;73.98
68109;SHT30;54893;49.864;19.084;2022-10-30T11:43:21;20.58;73.05
68109;SHT30;54893;49.864;19.084;2022-10-30T11:48:28;20.73;71.56
68109;SHT30;54893;49.864;19.084;2022-10-30T11:53:41;20.96;70.64
68109;SHT30;54893;49.864;19.084;2022-10-30T11:58:45;21.22;70.17
68109;SHT30;54893;49.864;19.084;2022-10-30T12:03:47;21.44;69.37
68109;SHT30;54893;49.864;19.084;2022-10-30T12:09:20;21.84;68.01
68109;SHT30;54893;49.864;19.084;2022-10-30T12:14:22;22.05;66.61
68109;SHT30;54893;49.864;19.084;2022-10-30T12:19:24;21.91;67.29
68109;SHT30;54893;49.864;19.084;2022-10-30T12:24:34;21.86;66.77
68109;SHT30;54893;49.864;19.084;2022-10-30T12:34:54;22.20;65.48
68109;SHT30;54893;49.864;19.084;2022-10-30T12:50:26;22.04;63.36
68109;SHT30;54893;49.864;19.084;2022-10-30T12:55:32;22.05;63.39
68109;SHT30;54893;49.864;19.084;2022-10-30T13:00:46;22.05;64.05
68109;SHT30;54893;49.864;19.084;2022-10-30T13:05:50;22.00;63.53
68109;SHT30;54893;49.864;19.084;2022-10-30T13:11:15;21.63;65.27
68109;SHT30;54893;49.864;19.084;2022-10-30T13:16:30;21.68;64.92
68109;SHT30;54893;49.864;19.084;2022-10-30T13:21:37;21.56;65.98
68109;SHT30;54893;49.864;19.084;2022-10-30T13:26:46;21.51;65.91
68109;SHT30;54893;49.864;19.084;2022-10-30T13:32:22;21.34;66.88
68109;SHT30;54893;49.864;19.084;2022-10-30T13:37:38;21.37;66.68
68109;SHT30;54893;49.864;19.084;2022-10-30T13:53:37;21.24;67.30
68109;SHT30;54893;49.864;19.084;2022-10-30T13:58:52;20.98;68.09
68109;SHT30;54893;49.864;19.084;2022-10-30T14:04:06;20.73;68.81
68109;SHT30;54893;49.864;19.084;2022-10-30T14:09:27;20.68;68.79
68109;SHT30;54893;49.864;19.084;2022-10-30T14:14:44;20.86;68.35
68109;SHT30;54893;49.864;19.084;2022-10-30T14:25:12;20.78;68.67
68109;SHT30;54893;49.864;19.084;2022-10-30T14:30:17;20.68;69.18
68109;SHT30;54893;49.864;19.084;2022-10-30T14:35:37;20.53;69.38
68109;SHT30;54893;49.864;19.084;2022-10-30T14:46:12;20.14;70.60
68109;SHT30;54893;49.864;19.084;2022-10-30T14:51:21;19.84;71.47
68109;SHT30;54893;49.864;19.084;2022-10-30T14:56:37;19.60;71.97
68109;SHT30;54893;49.864;19.084;2022-10-30T15:02:00;19.51;72.32
68109;SHT30;54893;49.864;19.084;2022-10-30T15:07:15;19.36;72.64
68109;SHT30;54893;49.864;19.084;2022-10-30T15:17:36;18.35;75.35
68109;SHT30;54893;49.864;19.084;2022-10-30T15:22:38;18.25;75.44
68109;SHT30;54893;49.864;19.084;2022-10-30T15:27:42;17.71;76.97
68109;SHT30;54893;49.864;19.084;2022-10-30T15:32:44;17.26;77.97
68109;SHT30;54893;49.864;19.084;2022-10-30T15:38:01;17.05;79.48
68109;SHT30;54893;49.864;19.084;2022-10-30T15:43:04;16.87;78.52
68109;SHT30;54893;49.864;19.084;2022-10-30T15:48:25;16.77;79.15
68109;SHT30;54893;49.864;19.084;2022-10-30T15:53:37;16.58;79.74
68109;SHT30;54893;49.864;19.084;2022-10-30T15:58:39;16.80;78.42
68109;SHT30;54893;49.864;19.084;2022-10-30T16:03:40;16.86;78.40
68109;SHT30;54893;49.864;19.084;2022-10-30T16:08:45;17.09;78.44
68109;SHT30;54893;49.864;19.084;2022-10-30T16:13:45;17.36;78.14
68109;SHT30;54893;49.864;19.084;2022-10-30T16:18:46;17.24;78.37
68109;SHT30;54893;49.864;19.084;2022-10-30T16:23:51;17.02;78.93
68109;SHT30;54893;49.864;19.084;2022-10-30T16:28:52;16.77;79.51
68109;SHT30;54893;49.864;19.084;2022-10-30T16:33:53;16.48;80.09
68109;SHT30;54893;49.864;19.084;2022-10-30T16:38:56;16.38;80.50
68109;SHT30;54893;49.864;19.084;2022-10-30T16:44:16;16.09;81.40
68109;SHT30;54893;49.864;19.084;2022-10-30T16:49:19;15.88;81.62
68109;SHT30;54893;49.864;19.084;2022-10-30T16:54:24;15.84;82.08
68109;SHT30;54893;49.864;19.084;2022-10-30T16:59:31;15.53;82.92
68109;SHT30;54893;49.864;19.084;2022-10-30T17:04:34;15.23;83.65
68109;SHT30;54893;49.864;19.084;2022-10-30T17:09:36;14.99;84.24
68109;SHT30;54893;49.864;19.084;2022-10-30T17:14:47;14.85;84.90
68109;SHT30;54893;49.864;19.084;2022-10-30T17:19:48;14.68;85.38
68109;SHT30;54893;49.864;19.084;2022-10-30T17:24:48;14.64;84.85
68109;SHT30;54893;49.864;19.084;2022-10-30T17:29:49;14.61;85.34
68109;SHT30;54893;49.864;19.084;2022-10-30T17:35:00;14.53;85.77
68109;SHT30;54893;49.864;19.084;2022-10-30T17:40:01;14.18;86.03
68109;SHT30;54893;49.864;19.084;2022-10-30T17:45:03;14.18;86.30
68109;SHT30;54893;49.864;19.084;2022-10-30T17:50:06;14.24;85.14
68109;SHT30;54893;49.864;19.084;2022-10-30T17:55:22;14.00;86.00
68109;SHT30;54893;49.864;19.084;2022-10-30T18:00:24;13.98;85.90
68109;SHT30;54893;49.864;19.084;2022-10-30T18:05:32;13.91;86.00
68109;SHT30;54893;49.864;19.084;2022-10-30T18:10:33;14.24;84.73
68109;SHT30;54893;49.864;19.084;2022-10-30T18:15:35;14.33;84.22
68109;SHT30;54893;49.864;19.084;2022-10-30T18:20:38;14.41;83.83
68109;SHT30;54893;49.864;19.084;2022-10-30T18:25:38;14.41;83.48
68109;SHT30;54893;49.864;19.084;2022-10-30T18:30:39;14.31;83.42
68109;SHT30;54893;49.864;19.084;2022-10-30T18:35:40;14.26;83.27
68109;SHT30;54893;49.864;19.084;2022-10-30T18:40:41;14.18;83.30
68109;SHT30;54893;49.864;19.084;2022-10-30T18:45:43;14.15;83.57
68109;SHT30;54893;49.864;19.084;2022-10-30T18:50:43;14.00;83.90
68109;SHT30;54893;49.864;19.084;2022-10-30T18:55:44;13.94;84.30
68109;SHT30;54893;49.864;19.084;2022-10-30T19:00:44;14.08;83.88
68109;SHT30;54893;49.864;19.084;2022-10-30T19:05:49;14.32;83.40
68109;SHT30;54893;49.864;19.084;2022-10-30T19:10:50;14.32;83.62
68109;SHT30;54893;49.864;19.084;2022-10-30T19:15:55;14.05;84.13
68109;SHT30;54893;49.864;19.084;2022-10-30T19:20:56;13.89;84.64
68109;SHT30;54893;49.864;19.084;2022-10-30T19:25:56;13.22;86.00
68109;SHT30;54893;49.864;19.084;2022-10-30T19:30:56;12.41;88.13
68109;SHT30;54893;49.864;19.084;2022-10-30T19:35:59;11.87;90.40
68109;SHT30;54893;49.864;19.084;2022-10-30T19:41:04;11.70;91.25
68109;SHT30;54893;49.864;19.084;2022-10-30T19:46:07;11.81;89.11
68109;SHT30;54893;49.864;19.084;2022-10-30T19:51:07;11.95;91.99
68109;SHT30;54893;49.864;19.084;2022-10-30T19:56:11;12.01;89.39
68109;SHT30;54893;49.864;19.084;2022-10-30T20:01:13;12.14;89.48
68109;SHT30;54893;49.864;19.084;2022-10-30T20:06:14;12.38;88.01
68109;SHT30;54893;49.864;19.084;2022-10-30T20:11:14;12.45;88.27
68109;SHT30;54893;49.864;19.084;2022-10-30T20:16:14;12.29;89.49
68109;SHT30;54893;49.864;19.084;2022-10-30T20:21:15;12.39;89.81
68109;SHT30;54893;49.864;19.084;2022-10-30T20:26:25;12.45;91.49
68109;SHT30;54893;49.864;19.084;2022-10-30T20:31:25;12.56;92.15
68109;SHT30;54893;49.864;19.084;2022-10-30T20:36:26;12.28;93.02
68109;SHT30;54893;49.864;19.084;2022-10-30T20:41:28;12.25;92.85
68109;SHT30;54893;49.864;19.084;2022-10-30T20:46:28;12.14;92.39
68109;SHT30;54893;49.864;19.084;2022-10-30T20:51:29;11.92;92.68
68109;SHT30;54893;49.864;19.084;2022-10-30T20:56:29;11.92;92.12
68109;SHT30;54893;49.864;19.084;2022-10-30T21:01:29;11.94;91.60
68109;SHT30;54893;49.864;19.084;2022-10-30T21:06:30;11.67;92.38
68109;SHT30;54893;49.864;19.084;2022-10-30T21:11:30;11.51;93.06
68109;SHT30;54893;49.864;19.084;2022-10-30T21:16:30;11.68;93.16
68109;SHT30;54893;49.864;19.084;2022-10-30T21:21:31;11.91;92.71
68109;SHT30;54893;49.864;19.084;2022-10-30T21:26:31;12.29;91.60
68109;SHT30;54893;49.864;19.084;2022-10-30T21:31:34;12.48;91.21
68109;SHT30;54893;49.864;19.084;2022-10-30T21:36:34;12.56;91.04
68109;SHT30;54893;49.864;19.084;2022-10-30T21:41:35;12.53;90.60
68109;SHT30;54893;49.864;19.084;2022-10-30T21:46:35;12.48;90.58
68109;SHT30;54893;49.864;19.084;2022-10-30T21:51:37;12.49;90.40
68109;SHT30;54893;49.864;19.084;2022-10-30T21:56:38;12.41;90.26
68109;SHT30;54893;49.864;19.084;2022-10-30T22:01:39;12.42;89.95
68109;SHT30;54893;49.864;19.084;2022-10-30T22:06:42;12.48;89.53
68109;SHT30;54893;49.864;19.084;2022-10-30T22:11:43;12.42;89.40
68109;SHT30;54893;49.864;19.084;2022-10-30T22:16:43;12.41;89.29
68109;SHT30;54893;49.864;19.084;2022-10-30T22:21:44;12.34;89.44
68109;SHT30;54893;49.864;19.084;2022-10-30T22:26:45;12.35;89.30
68109;SHT30;54893;49.864;19.084;2022-10-30T22:31:45;12.35;89.23
68109;SHT30;54893;49.864;19.084;2022-10-30T22:36:45;12.41;89.03
68109;SHT30;54893;49.864;19.084;2022-10-30T22:41:46;12.41;89.07
68109;SHT30;54893;49.864;19.084;2022-10-30T22:46:46;12.44;88.86
68109;SHT30;54893;49.864;19.084;2022-10-30T22:51:46;12.52;88.46
68109;SHT30;54893;49.864;19.084;2022-10-30T22:56:46;12.46;88.58
68109;SHT30;54893;49.864;19.084;2022-10-30T23:01:47;12.55;88.17
68109;SHT30;54893;49.864;19.084;2022-10-30T23:06:47;12.48;88.44
68109;SHT30;54893;49.864;19.084;2022-10-30T23:11:48;12.45;88.50
68109;SHT30;54893;49.864;19.084;2022-10-30T23:16:48;12.53;88.44
68109;SHT30;54893;49.864;19.084;2022-10-30T23:21:49;12.49;88.39
68109;SHT30;54893;49.864;19.084;2022-10-30T23:26:49;12.50;88.38
68109;SHT30;54893;49.864;19.084;2022-10-30T23:31:49;12.50;88.27
68109;SHT30;54893;49.864;19.084;2022-10-30T23:36:49;12.46;88.31
68109;SHT30;54893;49.864;19.084;2022-10-30T23:41:50;12.25;88.71
68109;SHT30;54893;49.864;19.084;2022-10-30T23:46:50;12.10;89.07
68109;SHT30;54893;49.864;19.084;2022-10-30T23:51:50;11.84;89.80
68109;SHT30;54893;49.864;19.084;2022-10-30T23:56:51;11.31;90.54
